createdAt,value
2023-01-03T00:00:02.091Z,4.30
2023-01-03T00:01:01.705Z,4.30
2023-01-03T00:02:02.384Z,6.00
2023-01-03T00:03:02.826Z,6.00
2023-01-03T00:04:02.440Z,6.00
2023-01-03T00:05:02.299Z,6.00
2023-01-03T00:06:02.305Z,6.00
2023-01-03T00:07:02.424Z,6.60
2023-01-03T00:08:02.211Z,6.60
2023-01-03T00:09:01.956Z,6.60
2023-01-03T00:10:02.464Z,6.60
2023-01-03T00:11:02.039Z,6.60
2023-01-03T00:12:01.998Z,6.60
2023-01-03T00:13:02.427Z,6.60
2023-01-03T00:14:01.944Z,6.60
2023-01-03T00:15:02.383Z,6.60
2023-01-03T00:16:01.855Z,6.60
2023-01-03T00:17:02.975Z,7.70
2023-01-03T00:18:02.497Z,7.70
2023-01-03T00:19:02.763Z,7.70
2023-01-03T00:20:02.566Z,7.70
2023-01-03T00:21:02.632Z,7.70
2023-01-03T00:22:02.396Z,7.20
2023-01-03T00:23:02.565Z,7.20
2023-01-03T00:24:02.614Z,7.20
2023-01-03T00:25:03.050Z,7.20
2023-01-03T00:26:02.548Z,7.20
2023-01-03T00:27:02.290Z,8.60
2023-01-03T00:28:02.086Z,8.60
2023-01-03T00:29:02.600Z,8.60
2023-01-03T00:30:02.093Z,8.60
2023-01-03T00:31:02.561Z,8.60
2023-01-03T00:32:02.755Z,9.20
2023-01-03T00:33:02.528Z,9.20
2023-01-03T00:34:02.304Z,9.20
2023-01-03T00:35:05.271Z,9.20
2023-01-03T00:36:02.284Z,9.20
2023-01-03T00:37:02.641Z,12.30
2023-01-03T00:38:03.135Z,12.30
2023-01-03T00:39:02.941Z,12.30
2023-01-03T00:40:02.684Z,12.30
2023-01-03T00:41:03.159Z,12.30
2023-01-03T00:42:03.005Z,5.50
2023-01-03T00:43:02.634Z,5.50
2023-01-03T00:44:02.961Z,5.50
2023-01-03T00:45:02.633Z,5.50
2023-01-03T00:46:03.258Z,5.50
2023-01-03T00:47:03.238Z,6.80
2023-01-03T00:48:03.309Z,6.80
2023-01-03T00:49:03.254Z,6.80
2023-01-03T00:50:03.023Z,6.80
2023-01-03T00:51:02.770Z,6.80
2023-01-03T00:52:02.664Z,4.20
2023-01-03T00:53:02.636Z,4.20
2023-01-03T00:54:02.486Z,4.20
2023-01-03T00:55:02.587Z,4.20
2023-01-03T00:56:02.356Z,4.20
2023-01-03T00:57:03.221Z,5.40
2023-01-03T00:58:02.995Z,5.40
2023-01-03T00:59:02.767Z,5.40
2023-01-03T01:00:03.210Z,5.40
2023-01-03T01:01:03.140Z,5.40
2023-01-03T01:02:03.138Z,5.30
2023-01-03T01:03:03.115Z,5.30
2023-01-03T01:04:03.237Z,5.30
2023-01-03T01:05:02.986Z,5.30
2023-01-03T01:06:03.441Z,5.30
2023-01-03T01:07:02.693Z,6.00
2023-01-03T01:08:02.518Z,6.00
2023-01-03T01:09:02.732Z,6.00
2023-01-03T01:10:03.121Z,6.00
2023-01-03T01:11:02.841Z,6.00
2023-01-03T01:12:02.625Z,4.60
2023-01-03T01:13:02.609Z,4.60
2023-01-03T01:14:02.211Z,4.60
2023-01-03T01:15:02.584Z,4.60
2023-01-03T01:16:02.587Z,4.60
2023-01-03T01:17:02.419Z,6.60
2023-01-03T01:18:02.183Z,6.60
2023-01-03T01:19:02.627Z,6.60
2023-01-03T01:20:02.473Z,6.60
2023-01-03T01:21:02.784Z,6.60
2023-01-03T01:22:03.049Z,5.10
2023-01-03T01:23:02.891Z,5.10
2023-01-03T01:24:03.418Z,5.10
2023-01-03T01:25:02.921Z,5.10
2023-01-03T01:26:02.823Z,5.10
2023-01-03T01:27:02.225Z,4.70
2023-01-03T01:28:02.304Z,4.70
2023-01-03T01:29:02.329Z,4.70
2023-01-03T01:30:02.120Z,4.70
2023-01-03T01:31:02.227Z,4.70
2023-01-03T01:32:02.649Z,5.60
2023-01-03T01:33:02.423Z,5.60
2023-01-03T01:34:02.808Z,5.60
2023-01-03T01:35:02.546Z,5.60
2023-01-03T01:36:02.381Z,5.60
2023-01-03T01:37:02.931Z,4.40
2023-01-03T01:38:03.296Z,4.40
2023-01-03T01:39:02.665Z,4.40
2023-01-03T01:40:03.073Z,4.40
2023-01-03T01:41:02.859Z,4.40
2023-01-03T01:42:02.293Z,5.80
2023-01-03T01:43:02.096Z,5.80
2023-01-03T01:44:02.143Z,5.80
2023-01-03T01:45:02.508Z,5.80
2023-01-03T01:46:02.118Z,5.80
2023-01-03T01:47:02.890Z,4.80
2023-01-03T01:48:02.515Z,4.80
2023-01-03T01:49:02.495Z,4.80
2023-01-03T01:50:02.947Z,4.80
2023-01-03T01:51:02.393Z,4.80
2023-01-03T01:52:02.979Z,4.50
2023-01-03T01:53:02.760Z,4.50
2023-01-03T01:54:02.686Z,4.50
2023-01-03T01:55:03.094Z,4.50
2023-01-03T01:56:02.690Z,4.50
2023-01-03T01:57:03.002Z,4.70
2023-01-03T01:58:02.954Z,4.70
2023-01-03T01:59:02.814Z,4.70
2023-01-03T02:00:03.308Z,4.70
2023-01-03T02:01:03.160Z,4.70
2023-01-03T02:02:02.798Z,5.40
2023-01-03T02:03:02.880Z,5.40
2023-01-03T02:04:02.486Z,5.40
2023-01-03T02:05:02.924Z,5.40
2023-01-03T02:06:02.451Z,5.40
2023-01-03T02:07:02.997Z,4.10
2023-01-03T02:08:02.725Z,4.10
2023-01-03T02:09:02.511Z,4.10
2023-01-03T02:10:02.927Z,4.10
2023-01-03T02:11:02.626Z,4.10
2023-01-03T02:12:02.767Z,4.60
2023-01-03T02:13:02.827Z,4.60
2023-01-03T02:14:03.200Z,4.60
2023-01-03T02:15:03.196Z,4.60
2023-01-03T02:16:03.344Z,4.60
2023-01-03T02:17:02.772Z,5.80
2023-01-03T02:18:02.282Z,5.80
2023-01-03T02:19:02.948Z,5.80
2023-01-03T02:20:02.468Z,5.80
2023-01-03T02:21:02.902Z,5.80
2023-01-03T02:22:03.086Z,4.60
2023-01-03T02:23:02.828Z,4.60
2023-01-03T02:24:02.644Z,4.60
2023-01-03T02:25:03.125Z,4.60
2023-01-03T02:26:02.929Z,4.60
2023-01-03T02:27:03.392Z,3.60
2023-01-03T02:28:03.213Z,3.60
2023-01-03T02:29:02.946Z,3.60
2023-01-03T02:30:03.449Z,3.60
2023-01-03T02:31:03.220Z,3.60
2023-01-03T02:32:02.351Z,4.70
2023-01-03T02:33:02.788Z,4.70
2023-01-03T02:34:02.531Z,4.70
2023-01-03T02:35:02.293Z,4.70
2023-01-03T02:36:02.623Z,4.70
2023-01-03T02:37:02.732Z,6.20
2023-01-03T02:38:03.143Z,6.20
2023-01-03T02:39:02.742Z,6.20
2023-01-03T02:40:03.192Z,6.20
2023-01-03T02:41:02.620Z,6.20
2023-01-03T02:42:02.788Z,7.10
2023-01-03T02:43:02.371Z,7.10
2023-01-03T02:44:02.711Z,7.10
2023-01-03T02:45:02.423Z,7.10
2023-01-03T02:46:02.311Z,7.10
2023-01-03T02:47:03.409Z,6.80
2023-01-03T02:48:02.915Z,6.80
2023-01-03T02:49:03.312Z,6.80
2023-01-03T02:50:02.719Z,6.80
2023-01-03T02:51:03.153Z,6.80
2023-01-03T02:52:03.611Z,3.10
2023-01-03T02:53:03.177Z,3.10
2023-01-03T02:54:03.115Z,3.10
2023-01-03T02:55:03.625Z,3.10
2023-01-03T02:56:03.180Z,3.10
2023-01-03T02:57:03.215Z,4.60
2023-01-03T02:58:02.745Z,4.60
2023-01-03T02:59:03.238Z,4.60
2023-01-03T03:00:02.764Z,4.60
2023-01-03T03:01:03.022Z,4.60
2023-01-03T03:02:01.990Z,6.20
2023-01-03T03:03:01.909Z,6.20
2023-01-03T03:04:02.291Z,6.20
2023-01-03T03:05:02.107Z,6.20
2023-01-03T03:06:01.788Z,6.20
2023-01-03T03:07:02.624Z,2.50
2023-01-03T03:08:02.387Z,2.50
2023-01-03T03:09:02.834Z,2.50
2023-01-03T03:10:02.280Z,2.50
2023-01-03T03:11:02.373Z,2.50
2023-01-03T03:12:01.884Z,5.60
2023-01-03T03:13:02.360Z,5.60
2023-01-03T03:14:01.801Z,5.60
2023-01-03T03:15:02.342Z,5.60
2023-01-03T03:16:02.135Z,5.60
2023-01-03T03:17:02.824Z,6.50
2023-01-03T03:18:02.685Z,6.50
2023-01-03T03:19:02.425Z,6.50
2023-01-03T03:20:06.485Z,6.50
2023-01-03T03:21:02.957Z,6.50
2023-01-03T03:22:02.541Z,3.90
2023-01-03T03:23:02.439Z,3.90
2023-01-03T03:24:02.927Z,3.90
2023-01-03T03:25:02.600Z,3.90
2023-01-03T03:26:03.044Z,3.90
2023-01-03T03:27:01.680Z,5.00
2023-01-03T03:28:02.111Z,5.00
2023-01-03T03:29:01.631Z,5.00
2023-01-03T03:30:02.140Z,5.00
2023-01-03T03:31:01.622Z,5.00
2023-01-03T03:32:02.461Z,4.70
2023-01-03T03:33:02.116Z,4.70
2023-01-03T03:34:02.482Z,4.70
2023-01-03T03:35:02.086Z,4.70
2023-01-03T03:36:02.525Z,4.70
2023-01-03T03:37:01.859Z,5.00
2023-01-03T03:38:01.600Z,5.00
2023-01-03T03:39:02.024Z,5.00
2023-01-03T03:40:02.086Z,5.00
2023-01-03T03:41:01.595Z,5.00
2023-01-03T03:42:02.181Z,2.70
2023-01-03T03:43:01.952Z,2.70
2023-01-03T03:44:02.369Z,2.70
2023-01-03T03:45:02.590Z,2.70
2023-01-03T03:46:02.446Z,2.70
2023-01-03T03:47:05.680Z,4.30
2023-01-03T03:48:03.025Z,4.30
2023-01-03T03:49:02.531Z,4.30
2023-01-03T03:50:02.975Z,4.30
2023-01-03T03:51:02.820Z,4.30
2023-01-03T03:52:02.509Z,3.30
2023-01-03T03:53:02.355Z,3.30
2023-01-03T03:54:02.116Z,3.30
2023-01-03T03:55:02.561Z,3.30
2023-01-03T03:56:02.232Z,3.30
2023-01-03T03:57:01.761Z,4.50
2023-01-03T03:58:01.906Z,4.50
2023-01-03T03:59:01.905Z,4.50
2023-01-03T04:00:01.703Z,4.50
2023-01-03T04:01:01.492Z,4.50
2023-01-03T04:02:02.051Z,4.30
2023-01-03T04:03:02.139Z,4.30
2023-01-03T04:04:01.739Z,4.30
2023-01-03T04:05:01.561Z,4.30
2023-01-03T04:06:02.032Z,4.30
2023-01-03T04:07:02.441Z,4.20
2023-01-03T04:08:02.265Z,4.20
2023-01-03T04:09:02.779Z,4.20
2023-01-03T04:10:02.330Z,4.20
2023-01-03T04:11:02.293Z,4.20
2023-01-03T04:12:01.869Z,5.10
2023-01-03T04:13:02.149Z,5.10
2023-01-03T04:14:01.722Z,5.10
2023-01-03T04:15:02.142Z,5.10
2023-01-03T04:16:01.856Z,5.10
2023-01-03T04:17:01.806Z,5.90
2023-01-03T04:18:02.371Z,5.90
2023-01-03T04:19:01.945Z,5.90
2023-01-03T04:20:02.382Z,5.90
2023-01-03T04:21:01.840Z,5.90
2023-01-03T04:22:02.170Z,4.20
2023-01-03T04:23:02.457Z,4.20
2023-01-03T04:24:02.381Z,4.20
2023-01-03T04:25:02.525Z,4.20
2023-01-03T04:26:02.121Z,4.20
2023-01-03T04:27:02.579Z,2.40
2023-01-03T04:28:02.879Z,2.40
2023-01-03T04:29:02.362Z,2.40
2023-01-03T04:30:02.759Z,2.40
2023-01-03T04:31:02.237Z,2.40
2023-01-03T04:32:02.760Z,3.70
2023-01-03T04:33:02.335Z,3.70
2023-01-03T04:34:02.795Z,3.70
2023-01-03T04:35:02.532Z,3.70
2023-01-03T04:36:02.760Z,3.70
2023-01-03T04:37:02.346Z,4.50
2023-01-03T04:38:02.097Z,4.50
2023-01-03T04:39:02.541Z,4.50
2023-01-03T04:40:02.051Z,4.50
2023-01-03T04:41:02.478Z,4.50
2023-01-03T04:42:01.580Z,5.30
2023-01-03T04:43:01.980Z,5.30
2023-01-03T04:44:01.783Z,5.30
2023-01-03T04:45:01.706Z,5.30
2023-01-03T04:46:01.611Z,5.30
2023-01-03T04:47:02.031Z,6.00
2023-01-03T04:48:02.144Z,6.00
2023-01-03T04:49:01.944Z,6.00
2023-01-03T04:50:01.706Z,6.00
2023-01-03T04:51:02.065Z,6.00
2023-01-03T04:52:02.483Z,4.90
2023-01-03T04:53:02.238Z,4.90
2023-01-03T04:54:02.677Z,4.90
2023-01-03T04:55:02.179Z,4.90
2023-01-03T04:56:02.624Z,4.90
2023-01-03T04:57:02.206Z,3.90
2023-01-03T04:58:01.980Z,3.90
2023-01-03T04:59:01.733Z,3.90
2023-01-03T05:00:01.909Z,3.90
2023-01-03T05:01:01.989Z,3.90
2023-01-03T05:02:02.597Z,4.20
2023-01-03T05:03:02.216Z,4.20
2023-01-03T05:04:02.063Z,4.20
2023-01-03T05:05:01.889Z,4.20
2023-01-03T05:06:02.396Z,4.20
2023-01-03T05:07:02.583Z,4.60
2023-01-03T05:08:02.340Z,4.60
2023-01-03T05:09:02.124Z,4.60
2023-01-03T05:10:02.537Z,4.60
2023-01-03T05:11:02.579Z,4.60
2023-01-03T05:12:03.159Z,9.60
2023-01-03T05:13:02.918Z,9.60
2023-01-03T05:14:02.694Z,9.60
2023-01-03T05:15:02.859Z,9.60
2023-01-03T05:16:02.714Z,9.60
2023-01-03T05:17:02.436Z,7.30
2023-01-03T05:18:02.304Z,7.30
2023-01-03T05:19:01.889Z,7.30
2023-01-03T05:20:02.339Z,7.30
2023-01-03T05:21:01.827Z,7.30
2023-01-03T05:22:02.886Z,6.10
2023-01-03T05:23:02.547Z,6.10
2023-01-03T05:24:02.422Z,6.10
2023-01-03T05:25:02.315Z,6.10
2023-01-03T05:26:02.794Z,6.10
2023-01-03T05:27:01.606Z,3.70
2023-01-03T05:28:02.268Z,3.70
2023-01-03T05:29:01.795Z,3.70
2023-01-03T05:30:02.202Z,3.70
2023-01-03T05:31:01.628Z,3.70
2023-01-03T05:32:02.800Z,4.10
2023-01-03T05:33:02.263Z,4.10
2023-01-03T05:34:02.719Z,4.10
2023-01-03T05:35:02.198Z,4.10
2023-01-03T05:36:02.694Z,4.10
2023-01-03T05:37:03.098Z,7.10
2023-01-03T05:38:02.609Z,7.10
2023-01-03T05:39:03.089Z,7.10
2023-01-03T05:40:02.599Z,7.10
2023-01-03T05:41:02.986Z,7.10
2023-01-03T05:42:03.017Z,4.80
2023-01-03T05:43:02.883Z,4.80
2023-01-03T05:44:03.014Z,4.80
2023-01-03T05:45:02.814Z,4.80
2023-01-03T05:46:02.717Z,4.80
2023-01-03T05:47:01.940Z,8.00
2023-01-03T05:48:02.356Z,8.00
2023-01-03T05:49:02.061Z,8.00
2023-01-03T05:50:01.892Z,8.00
2023-01-03T05:51:02.416Z,8.00
2023-01-03T05:52:01.974Z,4.60
2023-01-03T05:53:02.403Z,4.60
2023-01-03T05:54:02.395Z,4.60
2023-01-03T05:55:02.200Z,4.60
2023-01-03T05:56:02.021Z,4.60
2023-01-03T05:57:02.787Z,6.10
2023-01-03T05:58:03.036Z,6.10
2023-01-03T05:59:02.975Z,6.10
2023-01-03T06:00:02.532Z,6.10
2023-01-03T06:01:02.633Z,6.10
2023-01-03T06:02:02.250Z,7.00
2023-01-03T06:03:02.256Z,7.00
2023-01-03T06:04:02.705Z,7.00
2023-01-03T06:05:02.396Z,7.00
2023-01-03T06:06:02.313Z,7.00
2023-01-03T06:07:02.605Z,4.80
2023-01-03T06:08:02.510Z,4.80
2023-01-03T06:09:02.305Z,4.80
2023-01-03T06:10:02.716Z,4.80
2023-01-03T06:11:02.314Z,4.80
2023-01-03T06:12:02.533Z,5.70
2023-01-03T06:13:02.563Z,5.70
2023-01-03T06:14:02.375Z,5.70
2023-01-03T06:15:02.849Z,5.70
2023-01-03T06:16:02.882Z,5.70
2023-01-03T06:17:02.105Z,5.30
2023-01-03T06:18:01.871Z,5.30
2023-01-03T06:19:01.990Z,5.30
2023-01-03T06:20:01.843Z,5.30
2023-01-03T06:21:02.038Z,5.30
2023-01-03T06:22:08.638Z,7.20
2023-01-03T06:23:02.738Z,7.20
2023-01-03T06:24:02.603Z,7.20
2023-01-03T06:25:02.387Z,7.20
2023-01-03T06:26:02.944Z,7.20
2023-01-03T06:27:02.919Z,5.80
2023-01-03T06:28:03.372Z,5.80
2023-01-03T06:29:02.927Z,5.80
2023-01-03T06:30:02.915Z,5.80
2023-01-03T06:31:02.824Z,5.80
2023-01-03T06:32:08.932Z,4.20
2023-01-03T06:33:02.620Z,4.20
2023-01-03T06:34:02.508Z,4.20
2023-01-03T06:35:03.057Z,4.20
2023-01-03T06:36:02.893Z,4.20
2023-01-03T06:37:02.732Z,5.40
2023-01-03T06:38:02.537Z,5.40
2023-01-03T06:39:02.995Z,5.40
2023-01-03T06:40:02.774Z,5.40
2023-01-03T06:41:02.701Z,5.40
2023-01-03T06:42:02.271Z,4.20
2023-01-03T06:43:02.512Z,4.20
2023-01-03T06:44:02.018Z,4.20
2023-01-03T06:45:02.563Z,4.20
2023-01-03T06:46:02.182Z,4.20
2023-01-03T06:47:02.553Z,6.60
2023-01-03T06:48:02.542Z,6.60
2023-01-03T06:49:02.597Z,6.60
2023-01-03T06:50:02.357Z,6.60
2023-01-03T06:51:02.762Z,6.60
2023-01-03T06:52:01.862Z,8.30
2023-01-03T06:53:02.415Z,8.30
2023-01-03T06:54:02.237Z,8.30
2023-01-03T06:55:02.469Z,8.30
2023-01-03T06:56:02.434Z,8.30
2023-01-03T06:57:02.722Z,4.40
2023-01-03T06:58:03.004Z,4.40
2023-01-03T06:59:02.690Z,4.40
2023-01-03T07:00:02.995Z,4.40
2023-01-03T07:01:03.110Z,4.40
2023-01-03T07:02:02.268Z,5.70
2023-01-03T07:03:08.898Z,5.70
2023-01-03T07:04:02.391Z,5.70
2023-01-03T07:05:01.960Z,5.70
2023-01-03T07:06:02.429Z,5.70
2023-01-03T07:07:02.481Z,5.00
2023-01-03T07:08:02.336Z,5.00
2023-01-03T07:09:02.337Z,5.00
2023-01-03T07:10:02.830Z,5.00
2023-01-03T07:11:02.486Z,5.00
2023-01-03T07:12:02.940Z,5.80
2023-01-03T07:13:02.665Z,5.80
2023-01-03T07:14:03.107Z,5.80
2023-01-03T07:15:02.622Z,5.80
2023-01-03T07:16:03.177Z,5.80
2023-01-03T07:17:02.390Z,5.50
2023-01-03T07:18:01.860Z,5.50
2023-01-03T07:19:02.405Z,5.50
2023-01-03T07:20:02.268Z,5.50
2023-01-03T07:21:02.350Z,5.50
2023-01-03T07:22:02.727Z,6.50
2023-01-03T07:23:02.692Z,6.50
2023-01-03T07:24:02.518Z,6.50
2023-01-03T07:25:02.708Z,6.50
2023-01-03T07:26:02.658Z,6.50
2023-01-03T07:27:02.330Z,8.70
2023-01-03T07:28:07.132Z,8.70
2023-01-03T07:29:01.901Z,8.70
2023-01-03T07:30:01.833Z,8.70
2023-01-03T07:31:02.229Z,8.70
2023-01-03T07:32:02.649Z,6.40
2023-01-03T07:33:02.512Z,6.40
2023-01-03T07:34:02.608Z,6.40
2023-01-03T07:35:02.616Z,6.40
2023-01-03T07:36:09.323Z,6.40
2023-01-03T07:37:03.171Z,7.00
2023-01-03T07:38:03.012Z,7.00
2023-01-03T07:39:02.894Z,7.00
2023-01-03T07:40:02.985Z,7.00
2023-01-03T07:41:02.865Z,7.00
2023-01-03T07:42:02.730Z,6.10
2023-01-03T07:43:02.385Z,6.10
2023-01-03T07:44:02.260Z,6.10
2023-01-03T07:45:02.703Z,6.10
2023-01-03T07:46:02.693Z,6.10
2023-01-03T07:47:02.413Z,13.70
2023-01-03T07:48:01.929Z,13.70
2023-01-03T07:49:05.163Z,13.70
2023-01-03T07:50:02.189Z,13.70
2023-01-03T07:51:02.150Z,13.70
2023-01-03T07:52:02.670Z,16.70
2023-01-03T07:53:02.423Z,16.70
2023-01-03T07:54:02.491Z,16.70
2023-01-03T07:55:02.375Z,16.70
2023-01-03T07:56:04.450Z,16.70
2023-01-03T07:57:02.869Z,20.80
2023-01-03T07:58:02.204Z,20.80
2023-01-03T07:59:02.818Z,20.80
2023-01-03T08:00:02.288Z,20.80
2023-01-03T08:01:02.506Z,20.80
2023-01-03T08:02:02.999Z,9.60
2023-01-03T08:03:02.769Z,9.60
2023-01-03T08:04:02.515Z,9.60
2023-01-03T08:05:02.473Z,9.60
2023-01-03T08:06:02.439Z,9.60
2023-01-03T08:07:02.882Z,9.60
2023-01-03T08:08:03.213Z,9.60
2023-01-03T08:09:06.201Z,9.60
2023-01-03T08:10:03.047Z,9.60
2023-01-03T08:11:03.230Z,9.60
2023-01-03T08:12:02.029Z,6.90
2023-01-03T08:13:02.563Z,6.90
2023-01-03T08:14:02.325Z,6.90
2023-01-03T08:15:02.109Z,6.90
2023-01-03T08:16:02.053Z,6.90
2023-01-03T08:17:02.935Z,10.10
2023-01-03T08:18:02.345Z,10.10
2023-01-03T08:19:02.917Z,10.10
2023-01-03T08:20:02.314Z,10.10
2023-01-03T08:21:02.594Z,10.10
2023-01-03T08:22:02.380Z,11.10
2023-01-03T08:23:02.697Z,11.10
2023-01-03T08:24:02.543Z,11.10
2023-01-03T08:25:02.751Z,11.10
2023-01-03T08:26:02.717Z,11.10
2023-01-03T08:27:02.739Z,7.60
2023-01-03T08:28:03.118Z,7.60
2023-01-03T08:29:03.167Z,7.60
2023-01-03T08:30:03.059Z,7.60
2023-01-03T08:31:03.134Z,7.60
2023-01-03T08:32:02.297Z,8.30
2023-01-03T08:33:02.781Z,8.30
2023-01-03T08:34:02.668Z,8.30
2023-01-03T08:35:02.595Z,8.30
2023-01-03T08:36:02.546Z,8.30
2023-01-03T08:37:02.674Z,6.20
2023-01-03T08:38:03.232Z,6.20
2023-01-03T08:39:02.901Z,6.20
2023-01-03T08:40:03.433Z,6.20
2023-01-03T08:41:02.867Z,6.20
2023-01-03T08:42:02.729Z,6.10
2023-01-03T08:43:02.901Z,6.10
2023-01-03T08:44:02.803Z,6.10
2023-01-03T08:45:02.769Z,6.10
2023-01-03T08:46:03.268Z,6.10
2023-01-03T08:47:02.965Z,6.30
2023-01-03T08:48:02.826Z,6.30
2023-01-03T08:49:02.814Z,6.30
2023-01-03T08:50:03.457Z,6.30
2023-01-03T08:51:03.042Z,6.30
2023-01-03T08:52:02.033Z,10.20
2023-01-03T08:53:02.468Z,10.20
2023-01-03T08:54:02.374Z,10.20
2023-01-03T08:55:02.434Z,10.20
2023-01-03T08:56:02.336Z,10.20
2023-01-03T08:57:02.595Z,6.30
2023-01-03T08:58:02.650Z,6.30
2023-01-03T08:59:02.612Z,6.30
2023-01-03T09:00:02.543Z,6.30
2023-01-03T09:01:02.236Z,6.30
2023-01-03T09:02:03.100Z,7.00
2023-01-03T09:03:03.354Z,7.00
2023-01-03T09:04:02.868Z,7.00
2023-01-03T09:05:02.992Z,7.00
2023-01-03T09:06:02.961Z,7.00
2023-01-03T09:07:03.208Z,7.90
2023-01-03T09:08:03.121Z,7.90
2023-01-03T09:09:03.339Z,7.90
2023-01-03T09:10:03.252Z,7.90
2023-01-03T09:11:03.151Z,7.90
2023-01-03T09:12:02.735Z,7.30
2023-01-03T09:13:02.996Z,7.30
2023-01-03T09:14:02.761Z,7.30
2023-01-03T09:15:02.544Z,7.30
2023-01-03T09:16:02.517Z,7.30
2023-01-03T09:17:02.773Z,9.30
2023-01-03T09:18:02.789Z,9.30
2023-01-03T09:19:02.798Z,9.30
2023-01-03T09:20:02.618Z,9.30
2023-01-03T09:21:02.584Z,9.30
2023-01-03T09:22:03.887Z,6.60
2023-01-03T09:23:03.493Z,6.60
2023-01-03T09:24:03.505Z,6.60
2023-01-03T09:25:03.427Z,6.60
2023-01-03T09:26:03.508Z,6.60
2023-01-03T09:27:02.501Z,5.80
2023-01-03T09:28:02.508Z,5.80
2023-01-03T09:29:02.548Z,5.80
2023-01-03T09:30:02.363Z,5.80
2023-01-03T09:31:02.361Z,5.80
2023-01-03T09:32:03.189Z,5.30
2023-01-03T09:33:03.216Z,5.30
2023-01-03T09:34:03.137Z,5.30
2023-01-03T09:35:03.090Z,5.30
2023-01-03T09:36:03.002Z,5.30
2023-01-03T09:37:02.514Z,9.00
2023-01-03T09:38:02.747Z,9.00
2023-01-03T09:39:02.654Z,9.00
2023-01-03T09:40:02.532Z,9.00
2023-01-03T09:41:02.660Z,9.00
2023-01-03T09:42:02.838Z,10.50
2023-01-03T09:43:02.928Z,10.50
2023-01-03T09:44:02.957Z,10.50
2023-01-03T09:45:03.062Z,10.50
2023-01-03T09:46:03.070Z,10.50
2023-01-03T09:47:03.426Z,12.60
2023-01-03T09:48:03.112Z,12.60
2023-01-03T09:49:03.182Z,12.60
2023-01-03T09:51:19.764Z,12.60
2023-01-03T09:52:03.364Z,5.20
2023-01-03T09:53:03.160Z,5.20
2023-01-03T09:54:03.501Z,5.20
2023-01-03T09:55:03.452Z,5.20
2023-01-03T09:56:03.440Z,5.20
2023-01-03T09:57:02.817Z,10.00
2023-01-03T09:58:02.952Z,10.00
2023-01-03T09:59:02.902Z,10.00
2023-01-03T10:00:02.967Z,10.00
2023-01-03T10:01:03.081Z,10.00
2023-01-03T10:02:02.513Z,7.10
2023-01-03T10:03:02.588Z,7.10
2023-01-03T10:04:02.505Z,7.10
2023-01-03T10:05:02.287Z,7.10
2023-01-03T10:06:02.299Z,7.10
2023-01-03T10:07:02.844Z,5.00
2023-01-03T10:08:02.981Z,5.00
2023-01-03T10:09:02.881Z,5.00
2023-01-03T10:10:02.486Z,5.00
2023-01-03T10:11:02.528Z,5.00
2023-01-03T10:12:02.233Z,6.70
2023-01-03T10:13:02.195Z,6.70
2023-01-03T10:14:02.534Z,6.70
2023-01-03T10:15:02.366Z,6.70
2023-01-03T10:16:02.389Z,6.70
2023-01-03T10:17:02.544Z,4.90
2023-01-03T10:18:02.601Z,4.90
2023-01-03T10:19:02.267Z,4.90
2023-01-03T10:20:02.503Z,4.90
2023-01-03T10:21:02.561Z,4.90
2023-01-03T10:22:02.943Z,6.60
2023-01-03T10:23:03.275Z,6.60
2023-01-03T10:24:03.136Z,6.60
2023-01-03T10:25:02.760Z,6.60
2023-01-03T10:26:02.907Z,6.60
2023-01-03T10:27:02.455Z,5.20
2023-01-03T10:28:02.202Z,5.20
2023-01-03T10:29:02.057Z,5.20
2023-01-03T10:30:02.521Z,5.20
2023-01-03T10:31:07.765Z,5.20
2023-01-03T10:32:02.740Z,4.30
2023-01-03T10:33:02.547Z,4.30
2023-01-03T10:34:02.486Z,4.30
2023-01-03T10:35:02.658Z,4.30
2023-01-03T10:36:02.427Z,4.30
2023-01-03T10:37:03.280Z,9.40
2023-01-03T10:38:03.062Z,9.40
2023-01-03T10:39:02.903Z,9.40
2023-01-03T10:40:03.196Z,9.40
2023-01-03T10:41:03.162Z,9.40
2023-01-03T10:42:02.775Z,5.30
2023-01-03T10:43:02.651Z,5.30
2023-01-03T10:44:02.710Z,5.30
2023-01-03T10:45:02.770Z,5.30
2023-01-03T10:46:02.575Z,5.30
2023-01-03T10:47:03.210Z,6.60
2023-01-03T10:48:02.882Z,6.60
2023-01-03T10:49:31.864Z,6.60
2023-01-03T10:50:02.961Z,6.60
2023-01-03T10:51:03.009Z,6.60
2023-01-03T10:52:02.782Z,4.50
2023-01-03T10:53:02.542Z,4.50
2023-01-03T10:54:02.564Z,4.50
2023-01-03T10:55:02.621Z,4.50
2023-01-03T10:56:02.509Z,4.50
2023-01-03T10:57:02.815Z,8.10
2023-01-03T10:58:02.348Z,8.10
2023-01-03T10:59:02.166Z,8.10
2023-01-03T11:00:02.858Z,8.10
2023-01-03T11:01:02.660Z,8.10
2023-01-03T11:02:01.994Z,6.80
2023-01-03T11:03:01.960Z,6.80
2023-01-03T11:04:02.122Z,6.80
2023-01-03T11:05:01.743Z,6.80
2023-01-03T11:06:01.907Z,6.80
2023-01-03T11:07:02.099Z,6.30
2023-01-03T11:08:02.427Z,6.30
2023-01-03T11:09:02.177Z,6.30
2023-01-03T11:10:02.668Z,6.30
2023-01-03T11:11:02.288Z,6.30
2023-01-03T11:12:02.491Z,5.10
2023-01-03T11:13:02.594Z,5.10
2023-01-03T11:14:02.601Z,5.10
2023-01-03T11:15:02.769Z,5.10
2023-01-03T11:16:02.954Z,7.10
2023-01-03T11:17:02.694Z,7.10
2023-01-03T11:18:02.648Z,7.10
2023-01-03T11:19:03.203Z,7.10
2023-01-03T11:20:02.940Z,7.10
2023-01-03T11:21:03.254Z,5.60
2023-01-03T11:22:02.943Z,5.60
2023-01-03T11:23:02.221Z,5.60
2023-01-03T11:24:02.214Z,5.60
2023-01-03T11:25:02.271Z,5.60
2023-01-03T11:26:02.333Z,5.60
2023-01-03T11:27:02.342Z,5.90
2023-01-03T11:28:02.713Z,5.90
2023-01-03T11:29:02.776Z,5.90
2023-01-03T11:30:02.784Z,5.90
2023-01-03T11:31:02.744Z,5.70
2023-01-03T11:32:02.770Z,5.70
2023-01-03T11:33:01.985Z,5.70
2023-01-03T11:34:02.076Z,5.70
2023-01-03T11:36:02.063Z,5.70
2023-01-03T11:37:02.073Z,3.90
2023-01-03T11:38:02.821Z,3.90
2023-01-03T11:39:02.770Z,3.90
2023-01-03T11:40:03.161Z,3.90
2023-01-03T11:41:02.883Z,4.70
2023-01-03T11:42:02.497Z,4.70
2023-01-03T11:43:01.965Z,4.70
2023-01-03T11:44:02.519Z,4.70
2023-01-03T11:45:02.231Z,4.70
2023-01-03T11:46:02.404Z,5.40
2023-01-03T11:47:02.475Z,5.40
2023-01-03T11:48:03.001Z,5.40
2023-01-03T11:49:02.838Z,5.40
2023-01-03T11:50:02.835Z,5.40
2023-01-03T11:51:02.847Z,4.30
2023-01-03T11:52:03.180Z,4.30
2023-01-03T11:53:02.552Z,4.30
2023-01-03T11:54:02.866Z,4.30
2023-01-03T11:55:02.553Z,4.30
2023-01-03T11:56:02.512Z,4.80
2023-01-03T11:57:02.493Z,4.80
2023-01-03T11:58:01.879Z,4.80
2023-01-03T11:59:01.775Z,4.80
2023-01-03T12:00:01.909Z,4.80
2023-01-03T12:01:02.023Z,4.40
2023-01-03T12:02:02.126Z,4.40
2023-01-03T12:03:02.979Z,4.40
2023-01-03T12:04:02.892Z,4.40
2023-01-03T12:05:02.444Z,4.40
2023-01-03T12:06:02.683Z,5.60
2023-01-03T12:07:29.058Z,5.60
2023-01-03T12:08:02.310Z,5.60
2023-01-03T12:09:02.218Z,5.60
2023-01-03T12:10:02.206Z,5.60
2023-01-03T12:11:02.036Z,6.00
2023-01-03T12:12:02.398Z,6.00
2023-01-03T12:13:02.507Z,6.00
2023-01-03T12:14:02.507Z,6.00
2023-01-03T12:15:02.710Z,6.00
2023-01-03T12:16:02.580Z,5.50
2023-01-03T12:17:02.416Z,5.50
2023-01-03T12:18:01.709Z,5.50
2023-01-03T12:19:04.494Z,5.50
2023-01-03T12:20:01.706Z,5.50
2023-01-03T12:21:01.745Z,4.30
2023-01-03T12:22:02.315Z,4.30
2023-01-03T12:23:02.676Z,4.30
2023-01-03T12:24:02.738Z,4.30
2023-01-03T12:25:05.646Z,4.30
2023-01-03T12:26:02.740Z,4.10
2023-01-03T12:27:02.662Z,4.10
2023-01-03T12:28:02.031Z,4.10
2023-01-03T12:29:01.910Z,4.10
2023-01-03T12:30:02.023Z,4.10
2023-01-03T12:31:01.910Z,6.40
2023-01-03T12:32:02.005Z,6.40
2023-01-03T12:33:02.038Z,6.40
2023-01-03T12:34:02.001Z,6.40
2023-01-03T12:35:02.045Z,6.40
2023-01-03T12:36:02.104Z,4.30
2023-01-03T12:37:02.390Z,4.30
2023-01-03T12:38:02.934Z,4.30
2023-01-03T12:39:02.931Z,4.30
2023-01-03T12:40:02.962Z,4.30
2023-01-03T12:41:02.763Z,3.90
2023-01-03T12:42:03.115Z,3.90
2023-01-03T12:43:02.013Z,3.90
2023-01-03T12:44:01.988Z,3.90
2023-01-03T12:45:02.006Z,3.90
2023-01-03T12:46:06.940Z,3.90
2023-01-03T12:47:02.044Z,3.90
2023-01-03T12:48:02.770Z,3.90
2023-01-03T12:49:02.090Z,3.90
2023-01-03T12:50:02.202Z,3.90
2023-01-03T12:51:02.159Z,7.40
2023-01-03T12:52:02.486Z,7.40
2023-01-03T12:53:03.148Z,7.40
2023-01-03T12:54:02.546Z,7.40
2023-01-03T12:55:02.516Z,7.40
2023-01-03T12:56:03.022Z,3.80
2023-01-03T12:57:03.139Z,3.80
2023-01-03T12:58:02.556Z,3.80
2023-01-03T12:59:02.098Z,3.80
2023-01-03T13:00:01.919Z,3.80
2023-01-03T13:01:01.951Z,6.00
2023-01-03T13:02:02.722Z,6.00
2023-01-03T13:03:02.895Z,6.00
2023-01-03T13:04:02.401Z,6.00
2023-01-03T13:05:02.238Z,6.00
2023-01-03T13:06:02.291Z,2.70
2023-01-03T13:07:02.251Z,2.70
2023-01-03T13:08:02.797Z,2.70
2023-01-03T13:09:02.662Z,2.70
2023-01-03T13:10:02.242Z,2.70
2023-01-03T13:11:02.684Z,5.50
2023-01-03T13:12:02.241Z,5.50
2023-01-03T13:13:02.738Z,5.50
2023-01-03T13:14:02.811Z,5.50
2023-01-03T13:15:02.605Z,5.50
2023-01-03T13:16:02.512Z,2.70
2023-01-03T13:17:02.468Z,2.70
2023-01-03T13:18:02.428Z,2.70